Time;durP1;ratioP1;P1;durP2;ratioP2;P2;SDS_P1;SDS_P2;PMS_P1;PMS_P2;Temp;Humidity;BMP_temperature;BMP_pressure;BME280_temperature;BME280_humidity;BME280_pressure;Samples;Min_cycle;Max_cycle;Signal;HPM_P1;HPM_P2
2022/05/02 00:00:38;;;;;;;12.90;11.60;;;9.60;99.90;;;;;;4850203;29;20551;-92
2022/05/02 00:03:05;;;;;;;13.23;12.07;;;9.60;99.90;;;;;;4875450;29;20921;-92
2022/05/02 00:05:31;;;;;;;13.87;12.57;;;9.50;99.90;;;;;;4858979;29;20533;-91
2022/05/02 00:07:56;;;;;;;13.20;12.03;;;9.50;99.90;;;;;;4872527;29;20601;-92
2022/05/02 00:10:22;;;;;;;13.30;12.03;;;9.50;99.90;;;;;;4853967;29;20513;-90
2022/05/02 00:12:48;;;;;;;14.10;12.70;;;9.40;99.90;;;;;;4858835;29;20217;-92
2022/05/02 00:15:14;;;;;;;13.00;11.90;;;9.50;99.90;;;;;;4857383;29;20446;-92
2022/05/02 00:17:57;;;;;;;11.80;10.70;;;9.40;99.90;;;;;;4862993;29;20241;-91
2022/05/02 00:20:32;;;;;;;12.00;11.00;;;9.40;99.90;;;;;;4852163;29;20239;-91
2022/05/02 00:23:00;;;;;;;12.67;11.47;;;9.40;99.90;;;;;;4848064;29;20433;-91
2022/05/02 00:25:26;;;;;;;12.87;11.57;;;9.40;99.90;;;;;;4870906;29;20512;-91
2022/05/02 00:27:51;;;;;;;12.43;11.33;;;9.40;99.90;;;;;;4863247;29;20465;-92
2022/05/02 00:30:18;;;;;;;12.30;11.20;;;9.30;99.90;;;;;;4845870;29;20438;-91
2022/05/02 00:32:44;;;;;;;12.33;11.13;;;9.40;99.90;;;;;;4851929;29;20450;-92
2022/05/02 00:35:11;;;;;;;13.43;12.23;;;9.50;99.90;;;;;;4846366;29;20454;-91
2022/05/02 00:37:37;;;;;;;11.63;10.53;;;9.30;99.90;;;;;;4845220;29;20503;-91
2022/05/02 00:40:05;;;;;;;11.37;10.27;;;9.30;99.90;;;;;;4846135;29;20446;-90
2022/05/02 00:42:30;;;;;;;12.20;11.00;;;9.20;99.90;;;;;;4861576;29;20473;-90
2022/05/02 00:44:56;;;;;;;12.37;11.27;;;9.20;99.90;;;;;;4871396;29;20513;-91
2022/05/02 00:47:21;;;;;;;11.83;10.73;;;9.10;99.90;;;;;;4864790;29;20186;-91
2022/05/02 00:49:48;;;;;;;13.13;11.83;;;9.10;99.90;;;;;;4857845;29;20237;-90
2022/05/02 00:52:14;;;;;;;11.60;10.50;;;9.20;99.90;;;;;;4867919;29;20186;-91
2022/05/02 00:54:42;;;;;;;15.43;11.90;;;9.10;99.90;;;;;;4868919;29;20595;-91
2022/05/02 00:57:07;;;;;;;10.70;9.70;;;9.10;99.90;;;;;;4850158;29;20454;-90
2022/05/02 00:59:36;;;;;;;13.20;11.73;;;9.10;99.90;;;;;;4857126;29;21172;-91
2022/05/02 01:02:04;;;;;;;14.87;13.27;;;9.10;99.90;;;;;;4848050;29;20266;-90
2022/05/02 01:04:29;;;;;;;15.00;13.50;;;9.10;99.90;;;;;;4856823;29;20482;-93
2022/05/02 01:07:11;;;;;;;14.50;13.00;;;9.10;99.90;;;;;;4845692;29;20904;-92
2022/05/02 01:09:42;;;;;;;13.20;12.00;;;9.00;99.90;;;;;;4858406;29;20198;-90
2022/05/02 01:12:11;;;;;;;13.07;11.77;;;8.90;99.90;;;;;;4872076;29;21353;-90
2022/05/02 01:14:37;;;;;;;12.83;11.63;;;8.90;99.90;;;;;;4854959;29;20466;-89
2022/05/02 01:17:06;;;;;;;13.73;12.43;;;8.90;99.90;;;;;;4847540;29;20460;-90
2022/05/02 01:19:35;;;;;;;13.20;12.00;;;8.80;99.90;;;;;;4867522;29;20460;-92
2022/05/02 01:22:02;;;;;;;14.80;12.53;;;8.60;99.90;;;;;;4844233;29;20448;-91
2022/05/02 01:24:39;;;;;;;12.90;11.67;;;8.60;99.90;;;;;;4852110;29;20480;-92
2022/05/02 01:27:06;;;;;;;12.80;11.50;;;8.60;99.90;;;;;;4873654;29;20456;-92
2022/05/02 01:29:33;;;;;;;14.20;12.90;;;8.50;99.90;;;;;;4856753;29;20563;-92
2022/05/02 01:32:00;;;;;;;12.73;11.43;;;8.40;99.90;;;;;;4855383;29;20452;-92
2022/05/02 01:34:42;;;;;;;13.00;11.80;;;8.50;99.90;;;;;;4844656;29;20449;-91
2022/05/02 01:37:08;;;;;;;12.90;11.70;;;8.50;99.90;;;;;;4852802;29;21118;-91
2022/05/02 01:39:39;;;;;;;13.00;11.70;;;8.40;99.90;;;;;;4844645;29;20572;-92
2022/05/02 01:42:07;;;;;;;12.93;11.73;;;8.50;99.90;;;;;;4851821;29;20460;-91
2022/05/02 01:44:34;;;;;;;13.00;11.70;;;8.50;99.90;;;;;;4845524;29;22312;-91
2022/05/02 01:47:00;;;;;;;14.17;12.87;;;8.50;99.90;;;;;;4859488;29;20451;-90
2022/05/02 01:49:25;;;;;;;13.07;11.77;;;8.40;99.90;;;;;;4854705;29;20532;-90
2022/05/02 01:51:51;;;;;;;13.67;12.27;;;8.40;99.90;;;;;;4861770;29;20472;-90
2022/05/02 01:54:17;;;;;;;12.97;11.53;;;8.50;99.90;;;;;;4846618;29;20196;-91
2022/05/02 01:56:43;;;;;;;13.00;11.83;;;8.40;99.90;;;;;;4841712;29;21396;-90
2022/05/02 01:59:09;;;;;;;13.63;12.23;;;8.40;99.90;;;;;;4855061;29;20809;-91
2022/05/02 02:01:35;;;;;;;13.93;12.20;;;8.40;99.90;;;;;;4873358;29;20463;-90
2022/05/02 02:05:48;;;;;;;12.57;11.37;;;8.40;99.90;;;;;;4866332;29;21017;-90
2022/05/02 02:06:48;;;;;;;14.13;12.50;;;8.40;99.90;;;;;;4862482;29;20204;-91
2022/05/02 02:09:14;;;;;;;13.20;11.90;;;8.40;99.90;;;;;;4854369;29;20456;-90
2022/05/02 02:11:40;;;;;;;13.67;12.37;;;8.40;99.90;;;;;;4861344;29;20455;-92
2022/05/02 02:14:05;;;;;;;12.73;11.43;;;8.40;99.90;;;;;;4857439;29;20456;-91
2022/05/02 02:16:31;;;;;;;15.60;14.00;;;8.40;99.90;;;;;;4850275;29;20206;-91
2022/05/02 02:18:56;;;;;;;14.77;13.07;;;8.40;99.90;;;;;;4855337;29;20207;-91
2022/05/02 02:21:22;;;;;;;13.70;12.30;;;8.40;99.90;;;;;;4861629;29;20207;-91
2022/05/02 02:23:48;;;;;;;14.13;12.63;;;8.40;99.90;;;;;;4847270;29;20204;-90
2022/05/02 02:26:13;;;;;;;14.17;12.77;;;8.50;99.90;;;;;;4846158;29;20754;-90
2022/05/02 02:28:39;;;;;;;14.77;13.30;;;8.60;99.90;;;;;;4847767;29;20695;-90
2022/05/02 02:31:04;;;;;;;14.33;12.93;;;8.60;99.90;;;;;;4846510;29;20963;-90
2022/05/02 02:33:30;;;;;;;13.57;12.20;;;8.70;99.90;;;;;;4857556;29;20186;-90
2022/05/02 02:35:56;;;;;;;13.93;12.47;;;8.70;99.90;;;;;;4851863;29;20283;-89
2022/05/02 02:38:22;;;;;;;14.20;12.70;;;8.60;99.90;;;;;;4846950;29;20678;-89
2022/05/02 02:40:47;;;;;;;14.10;12.60;;;8.50;99.90;;;;;;4864442;29;20204;-90
2022/05/02 02:43:13;;;;;;;15.63;13.47;;;8.50;99.90;;;;;;4859142;29;20332;-91
2022/05/02 02:45:38;;;;;;;13.13;11.73;;;8.50;99.90;;;;;;4849327;29;20617;-90
2022/05/02 02:48:05;;;;;;;15.87;13.23;;;8.60;99.90;;;;;;4855994;29;20200;-92
2022/05/02 02:50:30;;;;;;;14.17;12.47;;;8.60;99.90;;;;;;4846868;29;20212;-91
2022/05/02 02:52:56;;;;;;;16.50;13.23;;;8.50;99.90;;;;;;4850172;29;20805;-92
2022/05/02 02:55:24;;;;;;;14.60;13.10;;;8.50;99.90;;;;;;4868204;29;20609;-91
2022/05/02 02:57:50;;;;;;;14.13;12.73;;;8.50;99.90;;;;;;4859800;29;20208;-90
2022/05/02 03:00:16;;;;;;;14.93;13.37;;;8.40;99.90;;;;;;4861973;29;20871;-91
2022/05/02 03:02:42;;;;;;;14.23;12.80;;;8.40;99.90;;;;;;4856769;29;20293;-91
2022/05/02 03:07:54;;;;;;;14.10;12.70;;;8.40;99.90;;;;;;4857856;29;20514;-91
2022/05/02 03:10:22;;;;;;;13.33;12.03;;;8.40;99.90;;;;;;4850557;29;20459;-92
2022/05/02 03:12:48;;;;;;;15.10;13.70;;;8.40;99.90;;;;;;4849476;29;22975;-93
2022/05/02 03:15:13;;;;;;;13.87;12.53;;;8.40;99.90;;;;;;4869244;29;20462;-93
2022/05/02 03:17:39;;;;;;;13.90;12.50;;;8.40;99.90;;;;;;4857613;29;20287;-93
2022/05/02 03:20:07;;;;;;;14.63;13.23;;;8.40;99.90;;;;;;4855040;29;20249;-91
2022/05/02 03:22:33;;;;;;;13.90;12.40;;;8.40;99.90;;;;;;4852350;29;20298;-93
2022/05/02 03:24:58;;;;;;;16.07;14.37;;;8.40;99.90;;;;;;4861341;29;21008;-90
2022/05/02 03:27:24;;;;;;;13.97;12.50;;;8.40;99.90;;;;;;4855105;29;20534;-92
2022/05/02 03:29:49;;;;;;;14.77;13.23;;;8.40;99.90;;;;;;4861872;29;20690;-90
2022/05/02 03:32:15;;;;;;;15.33;13.80;;;8.40;99.90;;;;;;4861395;29;20290;-92
2022/05/02 03:34:40;;;;;;;15.43;13.57;;;8.40;99.90;;;;;;4872749;29;20234;-92
2022/05/02 03:37:06;;;;;;;14.70;13.30;;;8.40;99.90;;;;;;4844058;29;20232;-92
2022/05/02 03:39:32;;;;;;;14.37;13.00;;;8.50;99.90;;;;;;4844052;29;20194;-91
2022/05/02 03:42:00;;;;;;;15.03;13.53;;;8.60;99.90;;;;;;4863714;29;20647;-92
2022/05/02 03:44:26;;;;;;;14.80;13.30;;;8.60;99.90;;;;;;4847523;29;20578;-92
2022/05/02 03:46:51;;;;;;;16.07;14.27;;;8.60;99.90;;;;;;4845168;29;20454;-91
2022/05/02 03:49:17;;;;;;;13.97;12.57;;;8.50;99.90;;;;;;4848246;29;20189;-92
2022/05/02 03:51:42;;;;;;;15.17;13.67;;;8.50;99.90;;;;;;4860389;29;20280;-92
2022/05/02 03:54:08;;;;;;;14.00;12.60;;;8.60;99.90;;;;;;4846082;29;20219;-93
2022/05/02 03:56:34;;;;;;;16.20;14.50;;;8.60;99.90;;;;;;4847879;29;20196;-93
2022/05/02 03:58:59;;;;;;;15.37;13.70;;;8.70;99.90;;;;;;4848969;29;20197;-91
2022/05/02 04:01:25;;;;;;;16.40;14.70;;;8.60;99.90;;;;;;4852038;29;20205;-92
2022/05/02 04:03:51;;;;;;;16.97;14.97;;;8.60;99.90;;;;;;4873053;29;20256;-91
2022/05/02 04:06:16;;;;;;;19.80;14.70;;;8.40;99.90;;;;;;4850306;29;20751;-92
2022/05/02 04:08:42;;;;;;;15.43;13.93;;;8.40;99.90;;;;;;4847080;29;20883;-93
2022/05/02 04:11:07;;;;;;;16.93;15.23;;;8.40;99.90;;;;;;4850778;29;20290;-92
2022/05/02 04:13:36;;;;;;;16.73;15.00;;;8.40;99.90;;;;;;4848239;29;20229;-92
2022/05/02 04:16:01;;;;;;;15.23;13.63;;;8.40;99.90;;;;;;4854242;29;20204;-92
2022/05/02 04:18:27;;;;;;;16.10;14.50;;;8.30;99.90;;;;;;4869666;29;20799;-92
2022/05/02 04:20:52;;;;;;;16.43;14.70;;;8.20;99.90;;;;;;4847402;29;20195;-93
2022/05/02 04:23:18;;;;;;;16.00;14.30;;;8.20;99.90;;;;;;4850271;29;20723;-91
2022/05/02 04:25:44;;;;;;;15.30;13.80;;;8.20;99.90;;;;;;4847380;29;21071;-93
2022/05/02 04:28:11;;;;;;;17.20;15.17;;;8.20;99.90;;;;;;4876556;29;20203;-93
2022/05/02 04:30:37;;;;;;;19.70;14.10;;;8.20;99.90;;;;;;4852755;29;20195;-91
2022/05/02 04:33:03;;;;;;;15.57;13.97;;;8.20;99.90;;;;;;4865114;29;20472;-93
2022/05/02 04:35:29;;;;;;;16.60;14.63;;;8.20;99.90;;;;;;4873411;29;20456;-93
2022/05/02 04:37:56;;;;;;;16.00;14.40;;;8.20;99.90;;;;;;4844805;29;20672;-91
2022/05/02 04:40:21;;;;;;;16.13;14.40;;;8.10;99.90;;;;;;4847199;29;20238;-92
2022/05/02 04:42:47;;;;;;;16.53;14.73;;;8.10;99.90;;;;;;4849425;29;20440;-84
2022/05/02 04:45:12;;;;;;;14.90;13.40;;;8.00;99.90;;;;;;4837375;29;20595;-87
2022/05/02 04:47:38;;;;;;;15.83;14.23;;;8.00;99.90;;;;;;4850596;29;20199;-89
2022/05/02 04:50:04;;;;;;;16.53;14.70;;;8.00;99.90;;;;;;4854746;29;20187;-88
2022/05/02 04:52:30;;;;;;;18.47;15.57;;;7.90;99.90;;;;;;4842561;29;20206;-88
2022/05/02 04:54:55;;;;;;;18.97;14.90;;;7.90;99.90;;;;;;4840149;29;20451;-88
2022/05/02 04:57:23;;;;;;;16.20;14.50;;;7.90;99.90;;;;;;4846031;29;20197;-87
2022/05/02 04:59:49;;;;;;;16.73;14.20;;;7.90;99.90;;;;;;4862526;29;20649;-88
2022/05/02 05:02:14;;;;;;;19.17;14.93;;;8.00;99.90;;;;;;4855203;29;21033;-88
2022/05/02 05:04:46;;;;;;;16.53;14.10;;;8.00;99.90;;;;;;4847803;29;20219;-85
2022/05/02 05:07:44;;;;;;;16.33;14.10;;;8.10;99.90;;;;;;4879318;29;20199;-96
2022/05/02 05:10:58;;;;;;;16.87;14.20;;;8.20;99.90;;;;;;4875342;29;20444;-96
2022/05/02 06:18:55;;;;;;;16.30;14.20;;;9.40;99.90;;;;;;4854212;29;20459;-94
2022/05/02 06:21:23;;;;;;;16.67;14.80;;;9.50;99.90;;;;;;4873507;29;20473;-96
2022/05/02 06:23:52;;;;;;;16.33;14.20;;;9.60;99.90;;;;;;4860094;29;20456;-93
2022/05/02 06:26:23;;;;;;;18.87;16.33;;;9.70;99.90;;;;;;4875708;29;20474;-94
2022/05/02 06:28:51;;;;;;;17.00;15.30;;;9.50;99.90;;;;;;4868633;29;20504;-91
2022/05/02 06:31:36;;;;;;;16.50;14.80;;;9.60;99.90;;;;;;4855996;29;20482;-92
2022/05/02 06:34:02;;;;;;;16.57;14.97;;;9.80;99.90;;;;;;4873031;29;20462;-91
2022/05/02 06:36:37;;;;;;;17.60;15.80;;;10.00;99.90;;;;;;4852110;29;20542;-91
2022/05/02 06:39:18;;;;;;;18.70;16.33;;;10.20;99.90;;;;;;4873376;29;20488;-91
2022/05/02 06:42:02;;;;;;;25.13;16.30;;;10.40;99.90;;;;;;4869683;29;20458;-92
2022/05/02 06:44:49;;;;;;;18.50;15.60;;;10.50;99.90;;;;;;4870876;29;20451;-93
2022/05/02 06:47:44;;;;;;;18.40;16.50;;;10.60;99.90;;;;;;4870818;29;20464;-94
2022/05/02 06:50:15;;;;;;;17.80;15.70;;;10.70;99.90;;;;;;4875251;29;20454;-91
2022/05/02 06:52:56;;;;;;;19.23;17.10;;;11.00;99.90;;;;;;4863310;29;20473;-93
2022/05/02 06:55:44;;;;;;;19.00;16.83;;;11.10;99.90;;;;;;4870216;29;20447;-94
2022/05/02 06:58:34;;;;;;;17.80;15.93;;;11.20;99.90;;;;;;4887620;29;20482;-93
2022/05/02 07:02:00;;;;;;;19.03;16.20;;;11.20;99.90;;;;;;4897409;29;20490;-95
2022/05/02 07:04:52;;;;;;;18.50;16.53;;;11.40;99.90;;;;;;4867486;29;20446;-95
2022/05/02 07:07:35;;;;;;;19.17;17.17;;;11.40;99.90;;;;;;4891479;29;20468;-91
2022/05/02 07:10:07;;;;;;;18.33;16.47;;;11.60;99.90;;;;;;4880080;29;20514;-88
2022/05/02 07:12:40;;;;;;;19.47;17.57;;;11.60;99.90;;;;;;4851573;29;20657;-91
2022/05/02 07:15:06;;;;;;;18.27;16.43;;;11.70;99.90;;;;;;4876458;29;20451;-88
2022/05/02 07:17:46;;;;;;;20.00;17.77;;;11.80;99.90;;;;;;4878652;29;20447;-89
2022/05/02 07:20:34;;;;;;;19.10;17.10;;;12.00;99.90;;;;;;4863387;29;20509;-88
2022/05/02 07:23:27;;;;;;;18.30;16.40;;;12.20;99.90;;;;;;4874121;29;20446;-88
2022/05/02 07:26:13;;;;;;;18.53;16.67;;;12.30;99.90;;;;;;4876193;29;20569;-88
2022/05/02 07:28:48;;;;;;;17.30;15.57;;;12.20;99.90;;;;;;4873180;29;20837;-88
2022/05/02 07:31:18;;;;;;;19.00;17.03;;;12.30;99.90;;;;;;4863463;29;20453;-86
2022/05/02 07:33:47;;;;;;;19.57;17.77;;;12.50;99.90;;;;;;4880454;29;20545;-89
2022/05/02 07:36:18;;;;;;;18.73;16.83;;;12.80;99.90;;;;;;4879433;29;20517;-87
2022/05/02 07:39:10;;;;;;;18.17;16.47;;;13.10;99.90;;;;;;4868617;29;20454;-88
2022/05/02 07:41:35;;;;;;;18.00;16.27;;;13.20;99.90;;;;;;4873760;29;20569;-88
2022/05/02 07:44:08;;;;;;;17.10;15.60;;;13.50;99.90;;;;;;4875396;29;20961;-87
2022/05/02 07:46:42;;;;;;;16.70;15.17;;;13.70;99.90;;;;;;4863369;29;20225;-88
2022/05/02 07:49:09;;;;;;;18.10;16.47;;;13.90;99.90;;;;;;4875756;29;20458;-89
2022/05/02 07:51:47;;;;;;;19.80;17.97;;;14.00;99.90;;;;;;4851592;29;20453;-88
2022/05/02 07:54:19;;;;;;;18.90;17.07;;;13.80;99.90;;;;;;4861831;29;20446;-88
2022/05/02 07:56:50;;;;;;;17.77;16.17;;;13.50;99.90;;;;;;4879784;29;20443;-89
2022/05/02 07:59:19;;;;;;;19.53;17.70;;;13.50;99.90;;;;;;4873915;29;20456;-90
2022/05/02 08:01:45;;;;;;;17.03;15.43;;;13.70;99.90;;;;;;4875612;29;20517;-89
2022/05/02 08:04:25;;;;;;;17.10;15.57;;;13.60;99.90;;;;;;4866675;29;20482;-89
2022/05/02 08:06:53;;;;;;;17.33;15.53;;;13.70;99.90;;;;;;4871998;29;20460;-89
2022/05/02 08:09:33;;;;;;;17.30;15.60;;;13.70;99.90;;;;;;4869176;29;20572;-89
2022/05/02 08:12:11;;;;;;;17.40;15.80;;;14.00;99.90;;;;;;4874729;29;20650;-90
2022/05/02 08:14:51;;;;;;;18.80;16.80;;;14.20;99.90;;;;;;4876890;29;20968;-89
2022/05/02 08:17:42;;;;;;;16.60;15.00;;;14.20;99.90;;;;;;4857840;29;20466;-88
2022/05/02 08:20:32;;;;;;;17.90;16.00;;;14.30;99.90;;;;;;4854638;29;20450;-88
2022/05/02 08:30:02;;;;;;;16.77;15.27;;;14.80;99.90;;;;;;4854933;29;21036;-91
2022/05/02 08:32:59;;;;;;;16.70;15.10;;;14.90;99.90;;;;;;4863164;29;20486;-89
2022/05/02 08:35:58;;;;;;;17.03;15.40;;;15.00;99.90;;;;;;4880270;29;20499;-89
2022/05/02 08:38:40;;;;;;;17.73;16.03;;;14.80;99.90;;;;;;4874884;29;20458;-88
2022/05/02 08:41:08;;;;;;;17.77;16.07;;;14.90;99.90;;;;;;4859268;29;20938;-91
2022/05/02 08:43:59;;;;;;;17.00;15.40;;;14.60;99.90;;;;;;4879458;29;20446;-89
2022/05/02 08:47:02;;;;;;;16.63;15.13;;;14.50;99.90;;;;;;4877793;29;20843;-87
2022/05/02 08:49:49;;;;;;;17.40;15.83;;;14.50;99.90;;;;;;4877369;29;21743;-91
2022/05/02 08:52:33;;;;;;;19.47;17.47;;;14.50;99.90;;;;;;4877893;29;20568;-91
2022/05/02 08:55:55;;;;;;;16.63;14.93;;;14.80;99.90;;;;;;4860885;29;20450;-85
2022/05/02 08:58:42;;;;;;;20.00;16.57;;;14.90;99.90;;;;;;4861798;29;20841;-89
2022/05/02 09:01:40;;;;;;;17.10;15.60;;;15.00;99.90;;;;;;4862480;29;20458;-89
2022/05/02 09:04:40;;;;;;;18.07;16.37;;;14.80;99.90;;;;;;4861458;29;20450;-88
2022/05/02 09:07:49;;;;;;;18.83;17.13;;;14.80;99.90;;;;;;4878392;29;20466;-88
2022/05/02 09:10:52;;;;;;;17.70;15.90;;;15.20;99.90;;;;;;4883758;29;20449;-89
2022/05/02 09:13:45;;;;;;;15.70;14.23;;;15.70;99.90;;;;;;4865156;29;20457;-91
2022/05/02 09:16:48;;;;;;;17.23;15.53;;;16.50;99.90;;;;;;4863797;29;20976;-89
2022/05/02 09:19:36;;;;;;;16.73;15.27;;;17.30;99.90;;;;;;4879856;29;20509;-88
2022/05/02 09:22:54;;;;;;;16.23;14.70;;;17.10;98.40;;;;;;4882199;29;21130;-89
2022/05/02 09:25:57;;;;;;;16.30;14.90;;;16.80;98.80;;;;;;4870641;29;20501;-89
2022/05/02 09:29:05;;;;;;;17.60;16.10;;;16.30;98.40;;;;;;4876907;29;20468;-89
2022/05/02 09:31:46;;;;;;;15.57;13.97;;;16.70;97.70;;;;;;4867839;29;20441;-89
2022/05/02 09:34:25;;;;;;;15.30;14.00;;;17.50;99.20;;;;;;4885206;29;20461;-89
2022/05/02 09:37:03;;;;;;;14.40;12.97;;;18.00;97.10;;;;;;4884374;29;20532;-88
2022/05/02 09:39:46;;;;;;;15.03;13.53;;;18.30;96.90;;;;;;4866380;29;20449;-89
2022/05/02 09:42:47;;;;;;;13.90;12.60;;;18.30;96.90;;;;;;4874724;29;20450;-89
2022/05/02 09:51:49;;;;;;;14.53;13.30;;;18.50;96.60;;;;;;4868860;29;20455;-89
2022/05/02 09:57:55;;;;;;;15.27;13.87;;;18.80;94.90;;;;;;4852720;29;20474;-93
2022/05/02 10:03:37;;;;;;;13.10;11.90;;;19.00;95.20;;;;;;4853158;29;20522;-95
2022/05/02 10:15:16;;;;;;;11.13;10.03;;;19.10;94.20;;;;;;5272815;23;20485;-95
2022/05/02 10:23:16;;;;;;;12.13;10.90;;;18.80;92.70;;;;;;5263091;23;20509;-96
2022/05/02 10:26:31;;;;;;;;;;;;;;;;;;;;;
2022/05/02 10:29:23;;;;;;;12.43;11.20;;;19.50;94.50;;;;;;5040641;23;20917;-93
2022/05/02 10:32:18;;;;;;;10.63;9.63;;;18.80;91.90;;;;;;4876377;29;20577;-88
2022/05/02 10:34:47;;;;;;;10.20;9.30;;;18.40;94.70;;;;;;4842805;29;20690;-92
2022/05/02 10:37:18;;;;;;;12.80;11.80;;;18.50;95.90;;;;;;4848003;29;20462;-92
2022/05/02 10:40:16;;;;;;;13.40;12.30;;;19.10;95.20;;;;;;4874977;29;21272;-92
2022/05/02 10:42:57;;;;;;;11.60;10.50;;;19.50;95.90;;;;;;4855389;29;20500;-92
2022/05/02 10:45:26;;;;;;;12.80;11.70;;;19.90;93.50;;;;;;4872152;29;20502;-91
2022/05/02 10:48:21;;;;;;;12.90;11.80;;;20.20;93.00;;;;;;4856882;29;20537;-92
2022/05/02 10:50:59;;;;;;;14.10;12.80;;;20.40;91.00;;;;;;4835195;29;20454;-92
2022/05/02 10:53:48;;;;;;;13.03;11.93;;;20.30;90.50;;;;;;4860058;29;20470;-92
2022/05/02 10:56:21;;;;;;;11.67;10.77;;;20.10;90.70;;;;;;4868597;29;20514;-92
2022/05/02 10:58:48;;;;;;;13.03;12.03;;;20.00;93.10;;;;;;4870562;29;21253;-92
2022/05/02 11:01:45;;;;;;;10.97;10.03;;;19.20;91.80;;;;;;4841269;29;20486;-91
2022/05/02 11:04:50;;;;;;;11.10;10.27;;;19.60;91.90;;;;;;4855302;29;22755;-90
2022/05/02 11:07:47;;;;;;;10.90;10.00;;;20.60;93.40;;;;;;4860647;29;20489;-91
2022/05/02 11:10:17;;;;;;;11.70;10.67;;;21.10;90.70;;;;;;4859032;29;20538;-92
2022/05/02 11:13:09;;;;;;;11.00;10.10;;;21.20;91.20;;;;;;4856659;29;20534;-92
2022/05/02 11:15:58;;;;;;;9.73;9.03;;;21.10;92.10;;;;;;4854386;29;20447;-91
2022/05/02 11:21:58;;;;;;;12.37;11.37;;;21.50;87.10;;;;;;4862472;29;20461;-90
2022/05/02 11:24:38;;;;;;;11.53;10.63;;;21.10;89.80;;;;;;4861592;29;20540;-89
2022/05/02 11:27:22;;;;;;;10.63;9.70;;;21.10;89.70;;;;;;4864027;29;20461;-88
2022/05/02 11:30:07;;;;;;;11.90;10.90;;;20.80;87.50;;;;;;4879255;29;20693;-89
2022/05/02 11:32:50;;;;;;;10.07;9.07;;;21.10;90.10;;;;;;4862796;29;21472;-89
2022/05/02 11:35:22;;;;;;;10.00;9.10;;;21.50;84.00;;;;;;4893467;29;22014;-89
2022/05/02 11:37:55;;;;;;;7.87;7.13;;;21.80;86.80;;;;;;4880110;29;20446;-88
2022/05/02 11:40:27;;;;;;;8.93;8.33;;;21.00;82.80;;;;;;4877886;29;21272;-89
2022/05/02 11:42:54;;;;;;;8.93;7.43;;;20.40;85.90;;;;;;4858883;29;20468;-89
2022/05/02 11:45:32;;;;;;;6.47;5.97;;;19.70;86.90;;;;;;4864003;29;20482;-88
2022/05/02 11:48:48;;;;;;;6.50;5.90;;;19.80;84.10;;;;;;4857673;29;20450;-89
2022/05/02 11:51:34;;;;;;;6.13;5.63;;;21.20;90.00;;;;;;4833679;29;21071;-89
2022/05/02 11:54:11;;;;;;;6.90;6.40;;;21.70;78.30;;;;;;4862621;29;20477;-90
2022/05/02 11:56:45;;;;;;;8.40;7.80;;;22.20;75.20;;;;;;4861956;29;20972;-88
2022/05/02 11:59:16;;;;;;;7.50;6.90;;;21.50;71.60;;;;;;4861442;29;20446;-89
2022/05/02 12:01:46;;;;;;;6.70;6.20;;;21.50;74.10;;;;;;4869333;29;20617;-90
2022/05/02 12:04:16;;;;;;;5.97;5.53;;;22.00;71.70;;;;;;4859911;29;20498;-89
2022/05/02 12:06:50;;;;;;;6.50;6.03;;;21.90;78.00;;;;;;4854578;29;20574;-90
2022/05/02 12:09:34;;;;;;;6.40;6.00;;;22.10;78.90;;;;;;4862248;29;20442;-90
2022/05/02 12:12:13;;;;;;;6.40;6.00;;;22.30;75.30;;;;;;4850185;29;20446;-91
2022/05/02 12:14:40;;;;;;;6.20;5.70;;;22.10;77.40;;;;;;4853461;29;20453;-92
2022/05/02 12:17:15;;;;;;;5.60;5.20;;;21.30;79.80;;;;;;4859021;29;20193;-92
2022/05/02 12:19:41;;;;;;;6.30;5.80;;;21.50;83.80;;;;;;4857758;29;20472;-91
2022/05/02 12:22:16;;;;;;;6.13;5.70;;;22.00;81.40;;;;;;4847056;29;20887;-91
2022/05/02 12:24:45;;;;;;;6.00;5.50;;;22.20;79.30;;;;;;4849890;29;20996;-91
2022/05/02 12:27:14;;;;;;;5.50;5.10;;;21.60;77.00;;;;;;4871236;29;22571;-90
2022/05/02 12:29:42;;;;;;;5.77;5.37;;;20.90;78.80;;;;;;4855671;29;20466;-91
2022/05/02 12:32:09;;;;;;;6.20;5.80;;;20.80;82.00;;;;;;4876663;29;20546;-91
2022/05/02 12:34:35;;;;;;;6.10;5.70;;;21.10;84.20;;;;;;4849415;29;21153;-90
2022/05/02 12:37:20;;;;;;;5.80;5.40;;;21.20;80.00;;;;;;4856949;29;20616;-90
2022/05/02 12:40:06;;;;;;;6.70;6.10;;;21.20;77.80;;;;;;4853109;29;20446;-90
2022/05/02 12:42:37;;;;;;;5.70;5.30;;;20.70;78.70;;;;;;4880688;29;20457;-90
2022/05/02 12:45:07;;;;;;;5.80;5.30;;;20.80;79.50;;;;;;4897460;29;20511;-90
2022/05/02 12:47:52;;;;;;;5.83;5.43;;;20.80;84.40;;;;;;4853284;29;20453;-90
2022/05/02 12:50:21;;;;;;;5.40;4.97;;;21.60;80.10;;;;;;4865708;29;20542;-91
2022/05/02 12:52:52;;;;;;;5.60;5.30;;;22.20;80.10;;;;;;4850130;29;20461;-90
2022/05/02 12:55:25;;;;;;;5.30;4.80;;;21.50;80.00;;;;;;4860703;29;20478;-91
2022/05/02 13:00:40;;;;;;;5.27;4.70;;;20.90;79.80;;;;;;4865698;29;20481;-89
2022/05/02 13:03:17;;;;;;;5.83;5.33;;;21.30;82.40;;;;;;4861751;29;20505;-90
2022/05/02 13:05:45;;;;;;;5.03;4.73;;;21.50;81.20;;;;;;4867892;29;20484;-90
2022/05/02 13:08:28;;;;;;;5.80;5.40;;;21.50;81.50;;;;;;4865391;29;20448;-89
2022/05/02 13:11:07;;;;;;;5.40;4.90;;;21.10;81.80;;;;;;4899676;29;21118;-89
2022/05/02 13:13:51;;;;;;;5.33;4.83;;;21.50;82.80;;;;;;4900635;29;20490;-90
2022/05/02 13:16:31;;;;;;;5.23;4.57;;;21.90;80.30;;;;;;4878718;29;20614;-90
2022/05/02 13:19:03;;;;;;;5.27;4.87;;;22.90;77.10;;;;;;4871860;29;20544;-90
2022/05/02 13:21:32;;;;;;;4.90;4.50;;;22.40;77.70;;;;;;4860530;29;20450;-89
2022/05/02 13:24:07;;;;;;;4.87;4.57;;;21.60;79.60;;;;;;4861498;29;20457;-89
2022/05/02 13:27:30;;;;;;;5.00;4.63;;;21.50;82.30;;;;;;4848668;29;20497;-92
2022/05/02 13:30:08;;;;;;;4.43;4.13;;;21.60;78.70;;;;;;4858154;29;20998;-88
2022/05/02 13:32:42;;;;;;;5.17;4.77;;;21.50;77.80;;;;;;4877387;29;20461;-91
2022/05/02 13:35:11;;;;;;;4.80;4.50;;;22.00;81.00;;;;;;4860064;29;20449;-90
2022/05/02 13:38:01;;;;;;;4.80;4.40;;;22.70;80.20;;;;;;4857071;29;20450;-91
2022/05/02 13:40:55;;;;;;;4.50;4.20;;;22.70;75.70;;;;;;4868341;29;20449;-96
2022/05/02 13:43:40;;;;;;;4.93;4.53;;;22.40;75.20;;;;;;4868805;29;20733;-94
2022/05/02 13:46:22;;;;;;;4.80;4.50;;;21.70;76.40;;;;;;4887900;29;20489;-92
2022/05/02 13:49:11;;;;;;;4.83;4.53;;;21.60;78.40;;;;;;4858356;29;20445;-94
2022/05/02 13:51:48;;;;;;;4.30;4.10;;;21.90;79.40;;;;;;4859130;29;20494;-95
2022/05/02 13:54:37;;;;;;;4.60;4.30;;;22.80;75.10;;;;;;4857660;29;20453;-91
2022/05/02 13:57:05;;;;;;;4.57;4.20;;;22.70;73.30;;;;;;4859264;29;20564;-95
2022/05/02 14:03:38;;;;;;;5.53;5.13;;;24.10;75.20;;;;;;4867903;29;20454;-96
2022/05/02 14:06:12;;;;;;;4.87;4.47;;;24.10;70.20;;;;;;4870199;29;20855;-96
2022/05/02 14:08:39;;;;;;;5.13;4.70;;;23.50;72.10;;;;;;4868400;29;20442;-95
2022/05/02 14:11:06;;;;;;;5.33;4.93;;;22.90;76.60;;;;;;4881321;29;20470;-95
2022/05/02 14:13:32;;;;;;;5.30;4.90;;;22.70;77.50;;;;;;4868684;29;20450;-96
2022/05/02 14:16:04;;;;;;;5.13;4.80;;;24.60;75.80;;;;;;4883466;29;20453;-95
2022/05/02 14:18:51;;;;;;;5.23;4.93;;;24.60;72.50;;;;;;4867009;29;20189;-96
2022/05/02 14:21:19;;;;;;;5.10;4.80;;;24.20;71.30;;;;;;4865429;29;20450;-94
2022/05/02 14:23:54;;;;;;;5.07;4.77;;;25.70;70.50;;;;;;4881675;29;20438;-94
2022/05/02 14:26:26;;;;;;;5.53;5.13;;;27.80;68.10;;;;;;4872839;29;20569;-94
2022/05/02 14:28:54;;;;;;;5.07;4.77;;;28.10;65.20;;;;;;4867125;29;20469;-94
2022/05/02 14:31:39;;;;;;;5.20;4.70;;;29.40;64.50;;;;;;4865689;29;20483;-95
2022/05/02 14:34:11;;;;;;;5.97;5.57;;;30.20;57.60;;;;;;4869288;29;20442;-94
2022/05/02 14:36:42;;;;;;;5.10;4.70;;;30.20;56.80;;;;;;4862416;29;20461;-95
2022/05/02 14:39:12;;;;;;;8.03;4.90;;;30.80;55.10;;;;;;4868128;29;20454;-95
2022/05/02 14:41:39;;;;;;;6.53;5.93;;;31.80;52.10;;;;;;4884964;29;20590;-94
2022/05/02 14:44:07;;;;;;;5.80;5.50;;;29.90;51.30;;;;;;4895553;29;20458;-94
2022/05/02 14:46:40;;;;;;;5.20;4.80;;;28.30;54.50;;;;;;4849875;29;20494;-96
2022/05/02 14:49:20;;;;;;;5.27;4.80;;;29.00;55.00;;;;;;4867240;29;20509;-95
2022/05/02 14:51:51;;;;;;;5.40;5.00;;;29.90;52.40;;;;;;4867212;29;20454;-95
2022/05/02 14:54:21;;;;;;;5.20;4.90;;;30.40;52.30;;;;;;4863828;29;20833;-95
2022/05/02 14:56:47;;;;;;;6.37;5.87;;;27.70;54.20;;;;;;4862463;29;20446;-94
2022/05/02 14:59:15;;;;;;;5.23;4.77;;;25.60;59.40;;;;;;4843367;29;20510;-95
2022/05/02 15:01:50;;;;;;;7.07;6.40;;;25.00;65.10;;;;;;4883429;29;20485;-95
2022/05/02 15:04:31;;;;;;;6.53;6.10;;;24.80;59.90;;;;;;4866118;29;20514;-95
2022/05/02 15:06:59;;;;;;;6.10;5.60;;;24.40;61.80;;;;;;4885473;29;20520;-94
2022/05/02 15:10:12;;;;;;;5.90;5.33;;;23.70;64.40;;;;;;4869001;29;20457;-95